sensor_id;sensor_type;location;lat;lon;timestamp;pressure;altitude;pressure_sealevel;temperature;humidity
2875;BME280;1445;52.600;13.328;2023-02-13T00:00:32;103194.50;;;7.59;100.00
2875;BME280;1445;52.600;13.328;2023-02-13T00:02:57;103197.31;;;7.46;100.00
2875;BME280;1445;52.600;13.328;2023-02-13T00:05:23;103187.16;;;7.47;100.00
2875;BME280;1445;52.600;13.328;2023-02-13T00:07:48;103188.50;;;7.37;100.00
2875;BME280;1445;52.600;13.328;2023-02-13T00:10:13;103189.34;;;7.38;100.00
2875;BME280;1445;52.600;13.328;2023-02-13T00:12:39;103185.38;;;7.34;100.00
2875;BME280;1445;52.600;13.328;2023-02-13T00:15:06;103195.69;;;7.38;100.00
2875;BME280;1445;52.600;13.328;2023-02-13T00:17:31;103184.81;;;7.50;100.00
2875;BME280;1445;52.600;13.328;2023-02-13T00:19:57;103183.41;;;7.41;100.00
2875;BME280;1445;52.600;13.328;2023-02-13T00:22:22;103179.22;;;7.38;100.00
2875;BME280;1445;52.600;13.328;2023-02-13T00:24:48;103177.56;;;7.31;100.00
2875;BME280;1445;52.600;13.328;2023-02-13T00:27:14;103175.41;;;7.39;100.00
2875;BME280;1445;52.600;13.328;2023-02-13T00:29:39;103168.00;;;7.40;100.00
2875;BME280;1445;52.600;13.328;2023-02-13T00:32:05;103163.41;;;7.34;100.00
2875;BME280;1445;52.600;13.328;2023-02-13T00:34:30;103159.31;;;7.43;100.00
2875;BME280;1445;52.600;13.328;2023-02-13T00:36:55;103155.13;;;7.40;100.00
2875;BME280;1445;52.600;13.328;2023-02-13T00:39:21;103165.09;;;7.35;100.00
2875;BME280;1445;52.600;13.328;2023-02-13T00:41:46;103157.72;;;7.29;100.00
2875;BME280;1445;52.600;13.328;2023-02-13T00:44:12;103149.09;;;7.25;100.00
2875;BME280;1445;52.600;13.328;2023-02-13T00:46:37;103142.34;;;7.28;100.00
2875;BME280;1445;52.600;13.328;2023-02-13T00:49:03;103143.50;;;7.45;100.00
2875;BME280;1445;52.600;13.328;2023-02-13T00:51:29;103143.06;;;7.48;100.00
2875;BME280;1445;52.600;13.328;2023-02-13T00:53:54;103133.75;;;7.49;100.00
2875;BME280;1445;52.600;13.328;2023-02-13T00:56:20;103138.44;;;7.42;100.00
2875;BME280;1445;52.600;13.328;2023-02-13T00:58:46;103132.94;;;7.42;100.00
2875;BME280;1445;52.600;13.328;2023-02-13T01:01:11;103140.38;;;7.35;100.00
2875;BME280;1445;52.600;13.328;2023-02-13T01:03:36;103126.84;;;7.40;100.00
2875;BME280;1445;52.600;13.328;2023-02-13T01:06:02;103129.84;;;7.32;100.00
2875;BME280;1445;52.600;13.328;2023-02-13T01:08:28;103124.19;;;7.27;100.00
2875;BME280;1445;52.600;13.328;2023-02-13T01:10:54;103124.59;;;7.30;100.00
2875;BME280;1445;52.600;13.328;2023-02-13T01:13:19;103127.53;;;7.29;100.00
2875;BME280;1445;52.600;13.328;2023-02-13T01:15:46;103121.19;;;7.35;100.00
2875;BME280;1445;52.600;13.328;2023-02-13T01:18:13;103133.28;;;7.27;100.00
2875;BME280;1445;52.600;13.328;2023-02-13T01:20:40;103124.63;;;7.24;100.00
2875;BME280;1445;52.600;13.328;2023-02-13T01:23:06;103125.75;;;7.16;100.00
2875;BME280;1445;52.600;13.328;2023-02-13T01:25:31;103131.78;;;7.25;100.00
2875;BME280;1445;52.600;13.328;2023-02-13T01:27:56;103129.09;;;7.18;100.00
2875;BME280;1445;52.600;13.328;2023-02-13T01:30:22;103122.94;;;7.23;100.00
2875;BME280;1445;52.600;13.328;2023-02-13T01:32:47;103129.94;;;7.18;100.00
2875;BME280;1445;52.600;13.328;2023-02-13T01:35:14;103123.53;;;7.31;100.00
2875;BME280;1445;52.600;13.328;2023-02-13T01:37:40;103124.38;;;7.32;100.00
2875;BME280;1445;52.600;13.328;2023-02-13T01:40:09;103127.91;;;7.39;100.00
2875;BME280;1445;52.600;13.328;2023-02-13T01:42:35;103120.56;;;7.33;100.00
2875;BME280;1445;52.600;13.328;2023-02-13T01:45:12;103113.38;;;7.32;100.00
2875;BME280;1445;52.600;13.328;2023-02-13T01:47:45;103120.16;;;7.29;100.00
2875;BME280;1445;52.600;13.328;2023-02-13T01:50:13;103118.94;;;7.18;100.00
2875;BME280;1445;52.600;13.328;2023-02-13T01:52:49;103123.44;;;7.13;100.00
2875;BME280;1445;52.600;13.328;2023-02-13T01:55:17;103121.50;;;7.20;100.00
2875;BME280;1445;52.600;13.328;2023-02-13T01:57:48;103122.53;;;7.19;100.00
2875;BME280;1445;52.600;13.328;2023-02-13T02:00:15;103121.13;;;7.10;100.00
2875;BME280;1445;52.600;13.328;2023-02-13T02:02:47;103117.28;;;7.17;100.00
2875;BME280;1445;52.600;13.328;2023-02-13T02:05:14;103118.59;;;7.08;100.00
2875;BME280;1445;52.600;13.328;2023-02-13T02:07:41;103121.94;;;7.17;100.00
2875;BME280;1445;52.600;13.328;2023-02-13T02:10:10;103122.28;;;7.27;100.00
2875;BME280;1445;52.600;13.328;2023-02-13T02:12:44;103113.44;;;7.25;100.00
2875;BME280;1445;52.600;13.328;2023-02-13T02:15:12;103130.31;;;7.22;100.00
2875;BME280;1445;52.600;13.328;2023-02-13T02:17:38;103126.59;;;7.16;100.00
2875;BME280;1445;52.600;13.328;2023-02-13T02:33:36;103134.22;;;7.08;100.00
2875;BME280;1445;52.600;13.328;2023-02-13T02:36:21;103143.47;;;7.13;100.00
2875;BME280;1445;52.600;13.328;2023-02-13T02:39:02;103141.88;;;6.99;100.00
2875;BME280;1445;52.600;13.328;2023-02-13T02:41:45;103142.66;;;7.13;100.00
2875;BME280;1445;52.600;13.328;2023-02-13T02:44:37;103142.25;;;7.09;100.00
2875;BME280;1445;52.600;13.328;2023-02-13T02:50:15;103140.88;;;7.25;100.00
2875;BME280;1445;52.600;13.328;2023-02-13T02:52:55;103135.72;;;7.04;100.00
2875;BME280;1445;52.600;13.328;2023-02-13T02:58:08;103138.22;;;7.05;100.00
2875;BME280;1445;52.600;13.328;2023-02-13T03:00:54;103129.84;;;7.00;100.00
2875;BME280;1445;52.600;13.328;2023-02-13T03:03:40;103132.34;;;7.02;100.00
2875;BME280;1445;52.600;13.328;2023-02-13T03:06:33;103133.09;;;7.15;100.00
2875;BME280;1445;52.600;13.328;2023-02-13T03:09:03;103137.34;;;7.11;100.00
2875;BME280;1445;52.600;13.328;2023-02-13T03:11:50;103135.44;;;7.12;100.00
2875;BME280;1445;52.600;13.328;2023-02-13T03:14:38;103139.13;;;6.99;100.00
2875;BME280;1445;52.600;13.328;2023-02-13T03:17:03;103139.28;;;7.04;100.00
2875;BME280;1445;52.600;13.328;2023-02-13T03:25:37;103133.84;;;6.98;100.00
2875;BME280;1445;52.600;13.328;2023-02-13T03:33:49;103141.66;;;6.94;100.00
2875;BME280;1445;52.600;13.328;2023-02-13T03:36:46;103142.31;;;6.89;100.00
2875;BME280;1445;52.600;13.328;2023-02-13T03:39:41;103148.63;;;6.97;100.00
2875;BME280;1445;52.600;13.328;2023-02-13T03:44:57;103138.97;;;6.81;100.00
2875;BME280;1445;52.600;13.328;2023-02-13T03:47:44;103133.91;;;6.84;100.00
2875;BME280;1445;52.600;13.328;2023-02-13T03:50:11;103130.72;;;6.87;100.00
2875;BME280;1445;52.600;13.328;2023-02-13T03:52:59;103136.63;;;6.91;100.00
2875;BME280;1445;52.600;13.328;2023-02-13T03:55:32;103123.34;;;6.88;100.00
2875;BME280;1445;52.600;13.328;2023-02-13T03:58:21;103131.22;;;6.78;100.00
2875;BME280;1445;52.600;13.328;2023-02-13T04:01:08;103135.63;;;6.79;100.00
2875;BME280;1445;52.600;13.328;2023-02-13T04:06:07;103130.81;;;6.74;100.00
2875;BME280;1445;52.600;13.328;2023-02-13T04:08:33;103126.78;;;6.70;100.00
2875;BME280;1445;52.600;13.328;2023-02-13T04:11:23;103118.34;;;6.78;100.00
2875;BME280;1445;52.600;13.328;2023-02-13T04:13:57;103129.50;;;6.77;100.00
2875;BME280;1445;52.600;13.328;2023-02-13T04:16:29;103122.78;;;6.73;100.00
2875;BME280;1445;52.600;13.328;2023-02-13T04:18:58;103122.59;;;6.74;100.00
2875;BME280;1445;52.600;13.328;2023-02-13T04:21:24;103114.75;;;6.78;100.00
2875;BME280;1445;52.600;13.328;2023-02-13T04:23:50;103118.94;;;6.80;100.00
2875;BME280;1445;52.600;13.328;2023-02-13T04:26:17;103106.53;;;6.78;100.00
2875;BME280;1445;52.600;13.328;2023-02-13T04:28:43;103119.63;;;6.76;100.00
2875;BME280;1445;52.600;13.328;2023-02-13T04:31:09;103121.72;;;6.74;100.00
2875;BME280;1445;52.600;13.328;2023-02-13T04:33:35;103117.09;;;6.74;100.00
2875;BME280;1445;52.600;13.328;2023-02-13T04:36:00;103108.81;;;6.81;100.00
2875;BME280;1445;52.600;13.328;2023-02-13T04:38:25;103119.59;;;6.82;100.00
2875;BME280;1445;52.600;13.328;2023-02-13T04:40:51;103109.22;;;6.84;100.00
2875;BME280;1445;52.600;13.328;2023-02-13T04:43:16;103107.16;;;6.80;100.00
2875;BME280;1445;52.600;13.328;2023-02-13T04:45:47;103110.28;;;6.83;100.00
2875;BME280;1445;52.600;13.328;2023-02-13T04:48:12;103104.59;;;6.85;100.00
2875;BME280;1445;52.600;13.328;2023-02-13T04:50:38;103099.72;;;6.87;100.00
2875;BME280;1445;52.600;13.328;2023-02-13T04:53:03;103106.78;;;6.69;100.00
2875;BME280;1445;52.600;13.328;2023-02-13T04:55:29;103113.47;;;6.80;100.00
2875;BME280;1445;52.600;13.328;2023-02-13T04:57:54;103104.41;;;6.80;100.00
2875;BME280;1445;52.600;13.328;2023-02-13T05:00:21;103104.25;;;6.68;100.00
2875;BME280;1445;52.600;13.328;2023-02-13T05:02:47;103111.22;;;6.71;100.00
2875;BME280;1445;52.600;13.328;2023-02-13T05:05:12;103107.03;;;6.61;100.00
2875;BME280;1445;52.600;13.328;2023-02-13T05:07:38;103101.50;;;6.68;100.00
2875;BME280;1445;52.600;13.328;2023-02-13T05:10:03;103105.09;;;6.68;100.00
2875;BME280;1445;52.600;13.328;2023-02-13T05:12:29;103104.69;;;6.65;100.00
2875;BME280;1445;52.600;13.328;2023-02-13T05:14:54;103104.25;;;6.68;100.00
2875;BME280;1445;52.600;13.328;2023-02-13T05:17:20;103110.56;;;6.68;100.00
2875;BME280;1445;52.600;13.328;2023-02-13T05:19:45;103103.19;;;6.69;100.00
2875;BME280;1445;52.600;13.328;2023-02-13T05:22:10;103100.25;;;6.71;100.00
2875;BME280;1445;52.600;13.328;2023-02-13T05:24:54;103089.28;;;6.71;100.00
2875;BME280;1445;52.600;13.328;2023-02-13T05:27:20;103091.63;;;6.67;100.00
2875;BME280;1445;52.600;13.328;2023-02-13T05:29:45;103086.47;;;6.77;100.00
2875;BME280;1445;52.600;13.328;2023-02-13T05:32:11;103087.34;;;6.78;100.00
2875;BME280;1445;52.600;13.328;2023-02-13T05:34:36;103081.91;;;6.71;100.00
2875;BME280;1445;52.600;13.328;2023-02-13T05:37:02;103087.16;;;6.73;100.00
2875;BME280;1445;52.600;13.328;2023-02-13T05:39:27;103085.66;;;6.70;100.00
2875;BME280;1445;52.600;13.328;2023-02-13T05:41:52;103087.97;;;6.73;100.00
2875;BME280;1445;52.600;13.328;2023-02-13T05:44:18;103081.91;;;6.64;100.00
2875;BME280;1445;52.600;13.328;2023-02-13T05:46:43;103091.13;;;6.77;100.00
2875;BME280;1445;52.600;13.328;2023-02-13T05:49:11;103093.69;;;6.72;100.00
2875;BME280;1445;52.600;13.328;2023-02-13T05:51:36;103095.75;;;6.83;100.00
2875;BME280;1445;52.600;13.328;2023-02-13T05:54:02;103098.50;;;6.83;100.00
2875;BME280;1445;52.600;13.328;2023-02-13T05:56:28;103087.34;;;6.78;100.00
2875;BME280;1445;52.600;13.328;2023-02-13T05:58:53;103098.31;;;6.78;100.00
2875;BME280;1445;52.600;13.328;2023-02-13T06:01:20;103092.16;;;6.82;100.00
2875;BME280;1445;52.600;13.328;2023-02-13T06:03:45;103105.06;;;6.75;100.00
2875;BME280;1445;52.600;13.328;2023-02-13T06:06:11;103105.66;;;6.84;100.00
2875;BME280;1445;52.600;13.328;2023-02-13T06:08:36;103096.44;;;6.72;100.00
2875;BME280;1445;52.600;13.328;2023-02-13T06:11:03;103109.88;;;6.80;100.00
2875;BME280;1445;52.600;13.328;2023-02-13T06:13:29;103112.88;;;6.72;100.00
2875;BME280;1445;52.600;13.328;2023-02-13T06:15:55;103109.06;;;6.73;100.00
2875;BME280;1445;52.600;13.328;2023-02-13T06:18:20;103116.88;;;6.76;100.00
2875;BME280;1445;52.600;13.328;2023-02-13T06:20:46;103101.91;;;6.72;100.00
2875;BME280;1445;52.600;13.328;2023-02-13T06:23:11;103108.81;;;6.81;100.00
2875;BME280;1445;52.600;13.328;2023-02-13T06:25:37;103105.25;;;6.80;100.00
2875;BME280;1445;52.600;13.328;2023-02-13T06:28:03;103101.47;;;6.81;100.00
2875;BME280;1445;52.600;13.328;2023-02-13T06:30:28;103113.69;;;6.79;100.00
2875;BME280;1445;52.600;13.328;2023-02-13T06:32:54;103113.88;;;6.84;100.00
2875;BME280;1445;52.600;13.328;2023-02-13T06:35:19;103117.84;;;6.88;100.00
2875;BME280;1445;52.600;13.328;2023-02-13T06:37:45;103118.13;;;6.80;100.00
2875;BME280;1445;52.600;13.328;2023-02-13T06:40:12;103117.84;;;6.88;100.00
2875;BME280;1445;52.600;13.328;2023-02-13T06:42:38;103115.94;;;6.95;100.00
2875;BME280;1445;52.600;13.328;2023-02-13T06:45:03;103114.06;;;6.89;100.00
2875;BME280;1445;52.600;13.328;2023-02-13T06:47:29;103125.44;;;6.92;100.00
2875;BME280;1445;52.600;13.328;2023-02-13T06:49:54;103128.28;;;6.66;100.00
2875;BME280;1445;52.600;13.328;2023-02-13T06:52:20;103129.75;;;6.68;100.00
2875;BME280;1445;52.600;13.328;2023-02-13T06:54:45;103135.63;;;6.79;100.00
2875;BME280;1445;52.600;13.328;2023-02-13T06:57:11;103140.72;;;6.75;100.00
2875;BME280;1445;52.600;13.328;2023-02-13T06:59:36;103143.22;;;6.77;100.00
2875;BME280;1445;52.600;13.328;2023-02-13T07:02:01;103140.97;;;6.67;100.00
2875;BME280;1445;52.600;13.328;2023-02-13T07:04:27;103150.41;;;6.78;100.00
2875;BME280;1445;52.600;13.328;2023-02-13T07:06:56;103149.59;;;6.71;100.00
2875;BME280;1445;52.600;13.328;2023-02-13T07:09:22;103154.19;;;6.70;100.00
2875;BME280;1445;52.600;13.328;2023-02-13T07:11:48;103153.16;;;6.71;100.00
2875;BME280;1445;52.600;13.328;2023-02-13T07:14:14;103151.25;;;6.72;100.00
2875;BME280;1445;52.600;13.328;2023-02-13T07:16:39;103151.66;;;6.75;100.00
2875;BME280;1445;52.600;13.328;2023-02-13T07:19:04;103152.50;;;6.76;100.00
2875;BME280;1445;52.600;13.328;2023-02-13T07:21:30;103152.53;;;6.69;100.00
2875;BME280;1445;52.600;13.328;2023-02-13T07:23:55;103160.78;;;6.62;100.00
2875;BME280;1445;52.600;13.328;2023-02-13T07:26:20;103163.91;;;6.73;100.00
2875;BME280;1445;52.600;13.328;2023-02-13T07:28:46;103168.31;;;6.74;100.00
2875;BME280;1445;52.600;13.328;2023-02-13T07:31:11;103167.69;;;6.78;100.00
2875;BME280;1445;52.600;13.328;2023-02-13T07:33:37;103169.53;;;6.84;100.00
2875;BME280;1445;52.600;13.328;2023-02-13T07:36:03;103167.03;;;6.83;100.00
2875;BME280;1445;52.600;13.328;2023-02-13T07:38:29;103163.91;;;6.73;100.00
2875;BME280;1445;52.600;13.328;2023-02-13T07:40:59;103172.13;;;6.73;100.00
2875;BME280;1445;52.600;13.328;2023-02-13T07:43:24;103159.66;;;6.77;100.00
2875;BME280;1445;52.600;13.328;2023-02-13T07:45:50;103170.25;;;6.66;100.00
2875;BME280;1445;52.600;13.328;2023-02-13T07:48:22;103177.81;;;6.78;100.00
2875;BME280;1445;52.600;13.328;2023-02-13T07:50:48;103174.41;;;6.82;100.00
2875;BME280;1445;52.600;13.328;2023-02-13T07:53:13;103169.34;;;6.86;100.00
2875;BME280;1445;52.600;13.328;2023-02-13T07:55:39;103172.28;;;6.84;100.00
2875;BME280;1445;52.600;13.328;2023-02-13T07:58:04;103173.75;;;6.93;100.00
2875;BME280;1445;52.600;13.328;2023-02-13T08:00:30;103173.56;;;6.88;100.00
2875;BME280;1445;52.600;13.328;2023-02-13T08:02:59;103168.88;;;6.96;100.00
2875;BME280;1445;52.600;13.328;2023-02-13T08:05:25;103169.53;;;6.91;100.00
2875;BME280;1445;52.600;13.328;2023-02-13T08:07:51;103173.34;;;6.83;100.00
2875;BME280;1445;52.600;13.328;2023-02-13T08:10:16;103178.97;;;7.02;100.00
2875;BME280;1445;52.600;13.328;2023-02-13T08:13:01;103173.25;;;7.10;100.00
2875;BME280;1445;52.600;13.328;2023-02-13T08:15:26;103175.78;;;7.05;100.00
2875;BME280;1445;52.600;13.328;2023-02-13T08:17:52;103170.25;;;7.18;100.00
2875;BME280;1445;52.600;13.328;2023-02-13T08:20:17;103169.31;;;6.92;100.00
2875;BME280;1445;52.600;13.328;2023-02-13T08:22:43;103169.50;;;6.98;100.00
2875;BME280;1445;52.600;13.328;2023-02-13T08:25:08;103160.22;;;6.99;100.00
2875;BME280;1445;52.600;13.328;2023-02-13T08:27:34;103163.41;;;6.96;100.00
2875;BME280;1445;52.600;13.328;2023-02-13T08:29:59;103170.59;;;6.90;100.00
2875;BME280;1445;52.600;13.328;2023-02-13T08:32:26;103172.50;;;6.83;100.00
2875;BME280;1445;52.600;13.328;2023-02-13T08:34:51;103175.66;;;6.86;100.00
2875;BME280;1445;52.600;13.328;2023-02-13T08:37:17;103177.56;;;6.86;100.00
2875;BME280;1445;52.600;13.328;2023-02-13T08:39:42;103176.50;;;6.87;100.00
2875;BME280;1445;52.600;13.328;2023-02-13T08:42:08;103168.94;;;6.82;100.00
2875;BME280;1445;52.600;13.328;2023-02-13T08:44:33;103180.50;;;6.91;100.00
2875;BME280;1445;52.600;13.328;2023-02-13T08:46:59;103178.00;;;6.83;100.00
2875;BME280;1445;52.600;13.328;2023-02-13T08:49:30;103175.44;;;6.88;100.00
2875;BME280;1445;52.600;13.328;2023-02-13T08:51:56;103173.13;;;6.91;100.00
2875;BME280;1445;52.600;13.328;2023-02-13T08:54:21;103177.53;;;6.92;100.00
2875;BME280;1445;52.600;13.328;2023-02-13T08:56:46;103173.13;;;6.91;100.00
2875;BME280;1445;52.600;13.328;2023-02-13T08:59:12;103180.09;;;6.87;100.00
2875;BME280;1445;52.600;13.328;2023-02-13T09:01:37;103180.56;;;6.78;100.00
2875;BME280;1445;52.600;13.328;2023-02-13T09:04:03;103185.75;;;6.99;100.00
2875;BME280;1445;52.600;13.328;2023-02-13T09:06:28;103194.38;;;7.03;100.00
2875;BME280;1445;52.600;13.328;2023-02-13T09:08:54;103190.00;;;6.95;100.00
2875;BME280;1445;52.600;13.328;2023-02-13T09:11:19;103196.31;;;6.96;100.00
2875;BME280;1445;52.600;13.328;2023-02-13T09:13:48;103193.34;;;6.97;100.00
2875;BME280;1445;52.600;13.328;2023-02-13T09:16:13;103195.09;;;6.85;100.00
2875;BME280;1445;52.600;13.328;2023-02-13T09:18:39;103202.00;;;6.94;100.00
2875;BME280;1445;52.600;13.328;2023-02-13T09:21:10;103200.16;;;6.81;100.00
2875;BME280;1445;52.600;13.328;2023-02-13T09:23:38;103203.59;;;6.63;100.00
2875;BME280;1445;52.600;13.328;2023-02-13T09:26:09;103216.22;;;6.64;100.00
2875;BME280;1445;52.600;13.328;2023-02-13T09:28:35;103226.38;;;6.64;100.00
2875;BME280;1445;52.600;13.328;2023-02-13T09:31:06;103228.03;;;6.58;100.00
2875;BME280;1445;52.600;13.328;2023-02-13T09:33:32;103223.19;;;6.60;100.00
2875;BME280;1445;52.600;13.328;2023-02-13T09:35:57;103230.13;;;6.63;100.00
2875;BME280;1445;52.600;13.328;2023-02-13T09:38:22;103235.00;;;6.61;100.00
2875;BME280;1445;52.600;13.328;2023-02-13T09:40:55;103241.31;;;6.68;100.00
2875;BME280;1445;52.600;13.328;2023-02-13T09:43:32;103242.16;;;6.55;100.00
2875;BME280;1445;52.600;13.328;2023-02-13T09:46:06;103238.38;;;6.56;100.00
2875;BME280;1445;52.600;13.328;2023-02-13T09:48:35;103243.66;;;6.58;100.00
2875;BME280;1445;52.600;13.328;2023-02-13T09:51:03;103237.34;;;6.57;100.00
2875;BME280;1445;52.600;13.328;2023-02-13T09:53:29;103248.47;;;6.62;100.00
2875;BME280;1445;52.600;13.328;2023-02-13T09:58:46;103242.56;;;6.65;100.00
2875;BME280;1445;52.600;13.328;2023-02-13T10:01:22;103246.59;;;6.63;100.00
2875;BME280;1445;52.600;13.328;2023-02-13T10:06:28;103248.06;;;6.65;100.00
2875;BME280;1445;52.600;13.328;2023-02-13T10:09:20;103252.47;;;6.66;100.00
2875;BME280;1445;52.600;13.328;2023-02-13T10:17:31;103262.41;;;6.74;100.00
2875;BME280;1445;52.600;13.328;2023-02-13T10:20:03;103252.69;;;6.78;100.00
2875;BME280;1445;52.600;13.328;2023-02-13T10:22:38;103250.75;;;6.85;100.00
2875;BME280;1445;52.600;13.328;2023-02-13T10:27:46;103254.53;;;6.84;100.00
2875;BME280;1445;52.600;13.328;2023-02-13T10:30:20;103250.75;;;6.85;100.00
2875;BME280;1445;52.600;13.328;2023-02-13T10:33:12;103251.78;;;6.98;100.00
2875;BME280;1445;52.600;13.328;2023-02-13T10:35:51;103250.75;;;6.92;100.00
2875;BME280;1445;52.600;13.328;2023-02-13T10:38:20;103253.50;;;6.92;100.00
2875;BME280;1445;52.600;13.328;2023-02-13T10:41:51;103254.50;;;7.04;100.00
2875;BME280;1445;52.600;13.328;2023-02-13T11:03:20;103226.81;;;7.12;100.00
2875;BME280;1445;52.600;13.328;2023-02-13T11:05:46;103225.94;;;7.18;100.00
2875;BME280;1445;52.600;13.328;2023-02-13T11:08:39;103221.56;;;7.11;100.00
2875;BME280;1445;52.600;13.328;2023-02-13T11:11:36;103222.63;;;7.10;100.00
2875;BME280;1445;52.600;13.328;2023-02-13T11:14:21;103222.59;;;7.16;100.00
2875;BME280;1445;52.600;13.328;2023-02-13T11:16:48;103221.66;;;7.36;100.00
2875;BME280;1445;52.600;13.328;2023-02-13T11:19:35;103220.22;;;7.27;100.00
2875;BME280;1445;52.600;13.328;2023-02-13T11:22:12;103214.34;;;7.23;100.00
2875;BME280;1445;52.600;13.328;2023-02-13T11:24:50;103206.91;;;7.30;100.00
2875;BME280;1445;52.600;13.328;2023-02-13T11:27:23;103203.06;;;7.38;100.00
2875;BME280;1445;52.600;13.328;2023-02-13T11:29:57;103202.38;;;7.49;100.00
2875;BME280;1445;52.600;13.328;2023-02-13T11:32:32;103188.13;;;7.34;100.00
2875;BME280;1445;52.600;13.328;2023-02-13T11:35:19;103178.72;;;7.48;100.00
2875;BME280;1445;52.600;13.328;2023-02-13T11:38:10;103177.63;;;7.56;100.00
2875;BME280;1445;52.600;13.328;2023-02-13T11:40:37;103175.00;;;7.68;100.00
2875;BME280;1445;52.600;13.328;2023-02-13T11:43:06;103162.19;;;7.86;100.00
2875;BME280;1445;52.600;13.328;2023-02-13T11:45:32;103160.50;;;7.85;100.00
2875;BME280;1445;52.600;13.328;2023-02-13T11:47:58;103161.91;;;7.95;100.00
2875;BME280;1445;52.600;13.328;2023-02-13T11:50:30;103152.00;;;7.94;100.00
2875;BME280;1445;52.600;13.328;2023-02-13T11:53:16;103144.00;;;7.85;100.00
2875;BME280;1445;52.600;13.328;2023-02-13T11:55:43;103143.22;;;7.78;100.00
2875;BME280;1445;52.600;13.328;2023-02-13T12:00:37;103134.16;;;7.78;100.00
2875;BME280;1445;52.600;13.328;2023-02-13T12:03:27;103120.47;;;7.96;100.00
2875;BME280;1445;52.600;13.328;2023-02-13T12:06:02;103120.31;;;7.91;100.00
2875;BME280;1445;52.600;13.328;2023-02-13T12:08:29;103124.00;;;7.78;100.00
2875;BME280;1445;52.600;13.328;2023-02-13T12:10:55;103125.31;;;7.76;100.00
2875;BME280;1445;52.600;13.328;2023-02-13T12:13:30;103127.47;;;7.67;100.00
2875;BME280;1445;52.600;13.328;2023-02-13T12:16:03;103128.31;;;7.68;100.00
2875;BME280;1445;52.600;13.328;2023-02-13T12:18:50;103125.41;;;7.62;100.00
2875;BME280;1445;52.600;13.328;2023-02-13T12:24:02;103124.59;;;7.62;100.00
2875;BME280;1445;52.600;13.328;2023-02-13T12:26:41;103127.09;;;7.63;100.00
2875;BME280;1445;52.600;13.328;2023-02-13T12:45:39;103121.66;;;7.82;100.00
2875;BME280;1445;52.600;13.328;2023-02-13T12:56:20;103101.81;;;7.80;100.00
2875;BME280;1445;52.600;13.328;2023-02-13T12:58:59;103088.44;;;8.08;100.00
2875;BME280;1445;52.600;13.328;2023-02-13T13:15:51;103080.84;;;7.85;100.00
2875;BME280;1445;52.600;13.328;2023-02-13T13:18:55;103072.00;;;7.83;100.00
2875;BME280;1445;52.600;13.328;2023-02-13T13:26:43;103066.56;;;7.77;100.00
2875;BME280;1445;52.600;13.328;2023-02-13T13:29:20;103069.31;;;7.77;100.00
2875;BME280;1445;52.600;13.328;2023-02-13T13:31:55;103078.50;;;7.64;100.00
2875;BME280;1445;52.600;13.328;2023-02-13T13:34:24;103074.50;;;7.85;100.00
2875;BME280;1445;52.600;13.328;2023-02-13T13:37:02;103072.06;;;7.77;100.00
2875;BME280;1445;52.600;13.328;2023-02-13T13:42:54;103076.81;;;7.88;100.00
2875;BME280;1445;52.600;13.328;2023-02-13T13:45:44;103079.41;;;7.83;100.00
2875;BME280;1445;52.600;13.328;2023-02-13T13:48:39;103073.75;;;7.78;100.00
2875;BME280;1445;52.600;13.328;2023-02-13T13:51:08;103074.97;;;7.82;100.00
2875;BME280;1445;52.600;13.328;2023-02-13T13:56:23;103059.53;;;7.62;100.00
2875;BME280;1445;52.600;13.328;2023-02-13T13:58:48;103064.72;;;7.71;100.00
2875;BME280;1445;52.600;13.328;2023-02-13T14:03:53;103054.75;;;7.76;100.00
2875;BME280;1445;52.600;13.328;2023-02-13T14:06:20;103057.19;;;7.66;100.00
2875;BME280;1445;52.600;13.328;2023-02-13T14:09:04;103052.06;;;7.70;100.00
2875;BME280;1445;52.600;13.328;2023-02-13T14:11:42;103046.69;;;7.56;100.00
2875;BME280;1445;52.600;13.328;2023-02-13T14:16:53;103039.69;;;7.60;100.00
2875;BME280;1445;52.600;13.328;2023-02-13T14:24:57;103029.66;;;7.73;100.00
2875;BME280;1445;52.600;13.328;2023-02-13T14:27:29;103029.09;;;7.64;100.00
2875;BME280;1445;52.600;13.328;2023-02-13T14:29:56;103019.69;;;7.53;100.00
2875;BME280;1445;52.600;13.328;2023-02-13T14:32:43;103020.09;;;7.75;100.00
2875;BME280;1445;52.600;13.328;2023-02-13T14:35:29;103018.34;;;7.62;100.00
2875;BME280;1445;52.600;13.328;2023-02-13T14:37:57;103021.88;;;7.70;100.00
2875;BME280;1445;52.600;13.328;2023-02-13T14:40:41;103015.94;;;7.73;100.00
2875;BME280;1445;52.600;13.328;2023-02-13T14:45:55;103011.69;;;7.52;100.00
2875;BME280;1445;52.600;13.328;2023-02-13T14:48:29;103012.59;;;7.46;100.00
2875;BME280;1445;52.600;13.328;2023-02-13T14:50:57;103014.50;;;7.45;100.00
2875;BME280;1445;52.600;13.328;2023-02-13T14:53:36;103020.09;;;7.57;100.00
2875;BME280;1445;52.600;13.328;2023-02-13T14:56:07;103014.94;;;7.42;100.00
2875;BME280;1445;52.600;13.328;2023-02-13T14:58:46;103011.50;;;7.47;100.00
2875;BME280;1445;52.600;13.328;2023-02-13T15:03:53;103015.47;;;7.51;100.00
2875;BME280;1445;52.600;13.328;2023-02-13T15:06:42;103021.16;;;7.56;100.00
2875;BME280;1445;52.600;13.328;2023-02-13T15:09:27;103025.03;;;7.48;100.00
2875;BME280;1445;52.600;13.328;2023-02-13T15:11:54;103018.78;;;7.59;100.00
2875;BME280;1445;52.600;13.328;2023-02-13T15:14:33;103021.09;;;7.62;100.00
2875;BME280;1445;52.600;13.328;2023-02-13T15:17:06;103006.81;;;7.54;100.00
2875;BME280;1445;52.600;13.328;2023-02-13T15:19:36;102998.75;;;7.59;100.00
2875;BME280;1445;52.600;13.328;2023-02-13T15:22:04;102992.38;;;7.40;100.00
2875;BME280;1445;52.600;13.328;2023-02-13T15:24:43;102984.56;;;7.37;100.00
2875;BME280;1445;52.600;13.328;2023-02-13T15:27:39;102977.53;;;7.48;100.00
2875;BME280;1445;52.600;13.328;2023-02-13T15:30:51;102977.03;;;7.32;100.00
2875;BME280;1445;52.600;13.328;2023-02-13T15:33:18;102981.81;;;7.37;100.00
2875;BME280;1445;52.600;13.328;2023-02-13T15:35:44;102985.31;;;7.26;100.00
2875;BME280;1445;52.600;13.328;2023-02-13T15:38:19;102988.84;;;7.33;100.00